sensor_id;sensor_type;location;lat;lon;timestamp;P1;durP1;ratioP1;P2;durP2;ratioP2
21152;SDS011;10734;44.792;20.482;2022-11-20T00:03:43;13.75;;;6.30;;
21152;SDS011;10734;44.792;20.482;2022-11-20T00:06:12;7.80;;;5.63;;
21152;SDS011;10734;44.792;20.482;2022-11-20T00:08:41;9.75;;;6.20;;
21152;SDS011;10734;44.792;20.482;2022-11-20T00:13:41;6.85;;;5.22;;
21152;SDS011;10734;44.792;20.482;2022-11-20T00:16:09;7.80;;;5.07;;
21152;SDS011;10734;44.792;20.482;2022-11-20T00:18:38;8.30;;;5.95;;
21152;SDS011;10734;44.792;20.482;2022-11-20T00:21:15;7.90;;;4.88;;
21152;SDS011;10734;44.792;20.482;2022-11-20T00:23:43;6.03;;;4.85;;
21152;SDS011;10734;44.792;20.482;2022-11-20T00:26:12;6.75;;;5.18;;
21152;SDS011;10734;44.792;20.482;2022-11-20T00:28:41;8.20;;;5.60;;
21152;SDS011;10734;44.792;20.482;2022-11-20T00:31:12;9.23;;;5.43;;
21152;SDS011;10734;44.792;20.482;2022-11-20T00:36:09;8.48;;;4.95;;
21152;SDS011;10734;44.792;20.482;2022-11-20T00:38:37;9.88;;;7.15;;
21152;SDS011;10734;44.792;20.482;2022-11-20T00:41:05;9.50;;;6.78;;
21152;SDS011;10734;44.792;20.482;2022-11-20T00:43:34;7.75;;;6.53;;
21152;SDS011;10734;44.792;20.482;2022-11-20T00:46:07;10.68;;;6.65;;
21152;SDS011;10734;44.792;20.482;2022-11-20T00:48:35;8.48;;;6.47;;
21152;SDS011;10734;44.792;20.482;2022-11-20T00:51:02;7.30;;;5.65;;
21152;SDS011;10734;44.792;20.482;2022-11-20T00:53:29;7.47;;;5.75;;
21152;SDS011;10734;44.792;20.482;2022-11-20T00:56:03;10.07;;;5.90;;
21152;SDS011;10734;44.792;20.482;2022-11-20T00:58:33;7.13;;;5.72;;
21152;SDS011;10734;44.792;20.482;2022-11-20T01:01:07;9.70;;;6.85;;
21152;SDS011;10734;44.792;20.482;2022-11-20T01:03:36;7.93;;;6.10;;
21152;SDS011;10734;44.792;20.482;2022-11-20T01:06:06;8.23;;;6.47;;
21152;SDS011;10734;44.792;20.482;2022-11-20T01:08:36;8.38;;;6.63;;
21152;SDS011;10734;44.792;20.482;2022-11-20T01:11:08;8.90;;;6.95;;
21152;SDS011;10734;44.792;20.482;2022-11-20T01:13:40;10.38;;;7.72;;
21152;SDS011;10734;44.792;20.482;2022-11-20T01:16:41;10.95;;;8.80;;
21152;SDS011;10734;44.792;20.482;2022-11-20T01:19:03;12.43;;;8.88;;
21152;SDS011;10734;44.792;20.482;2022-11-20T01:21:32;10.65;;;8.10;;
21152;SDS011;10734;44.792;20.482;2022-11-20T01:24:04;11.52;;;8.15;;
21152;SDS011;10734;44.792;20.482;2022-11-20T01:26:34;12.52;;;8.70;;
21152;SDS011;10734;44.792;20.482;2022-11-20T01:29:02;10.48;;;8.40;;
21152;SDS011;10734;44.792;20.482;2022-11-20T01:31:31;13.27;;;9.25;;
21152;SDS011;10734;44.792;20.482;2022-11-20T01:34:00;13.88;;;10.90;;
21152;SDS011;10734;44.792;20.482;2022-11-20T01:36:29;12.75;;;10.55;;
21152;SDS011;10734;44.792;20.482;2022-11-20T01:38:58;14.05;;;10.85;;
21152;SDS011;10734;44.792;20.482;2022-11-20T01:41:27;16.52;;;11.10;;
21152;SDS011;10734;44.792;20.482;2022-11-20T01:44:16;13.82;;;10.48;;
21152;SDS011;10734;44.792;20.482;2022-11-20T01:46:52;12.68;;;11.38;;
21152;SDS011;10734;44.792;20.482;2022-11-20T01:49:31;15.57;;;12.13;;
21152;SDS011;10734;44.792;20.482;2022-11-20T01:52:05;13.30;;;10.55;;
21152;SDS011;10734;44.792;20.482;2022-11-20T01:54:40;14.07;;;11.23;;
21152;SDS011;10734;44.792;20.482;2022-11-20T01:57:12;13.07;;;11.23;;
21152;SDS011;10734;44.792;20.482;2022-11-20T01:59:43;12.40;;;10.85;;
21152;SDS011;10734;44.792;20.482;2022-11-20T02:02:14;13.52;;;12.10;;
21152;SDS011;10734;44.792;20.482;2022-11-20T02:04:41;13.65;;;11.25;;
21152;SDS011;10734;44.792;20.482;2022-11-20T02:07:07;14.30;;;12.32;;
21152;SDS011;10734;44.792;20.482;2022-11-20T02:09:34;16.63;;;14.85;;
21152;SDS011;10734;44.792;20.482;2022-11-20T02:12:01;17.75;;;14.60;;
21152;SDS011;10734;44.792;20.482;2022-11-20T02:14:29;16.45;;;14.65;;
21152;SDS011;10734;44.792;20.482;2022-11-20T02:16:56;21.38;;;15.77;;
21152;SDS011;10734;44.792;20.482;2022-11-20T02:24:28;20.58;;;16.65;;
21152;SDS011;10734;44.792;20.482;2022-11-20T02:27:08;20.80;;;17.48;;
21152;SDS011;10734;44.792;20.482;2022-11-20T02:32:25;19.88;;;16.42;;
21152;SDS011;10734;44.792;20.482;2022-11-20T02:37:44;21.55;;;17.83;;
21152;SDS011;10734;44.792;20.482;2022-11-20T02:40:13;20.88;;;17.27;;
21152;SDS011;10734;44.792;20.482;2022-11-20T02:42:40;23.40;;;17.20;;
21152;SDS011;10734;44.792;20.482;2022-11-20T02:45:07;28.15;;;21.58;;
21152;SDS011;10734;44.792;20.482;2022-11-20T02:47:34;25.38;;;19.33;;
21152;SDS011;10734;44.792;20.482;2022-11-20T02:50:01;24.58;;;19.75;;
21152;SDS011;10734;44.792;20.482;2022-11-20T02:52:29;29.63;;;20.52;;
21152;SDS011;10734;44.792;20.482;2022-11-20T02:54:56;27.90;;;20.35;;
21152;SDS011;10734;44.792;20.482;2022-11-20T02:57:23;28.48;;;19.98;;
21152;SDS011;10734;44.792;20.482;2022-11-20T02:59:49;28.38;;;20.20;;
21152;SDS011;10734;44.792;20.482;2022-11-20T03:02:16;29.70;;;21.92;;
21152;SDS011;10734;44.792;20.482;2022-11-20T03:04:43;33.45;;;21.30;;
21152;SDS011;10734;44.792;20.482;2022-11-20T03:07:09;30.20;;;21.85;;
21152;SDS011;10734;44.792;20.482;2022-11-20T03:09:36;31.52;;;22.88;;
21152;SDS011;10734;44.792;20.482;2022-11-20T03:12:03;26.75;;;20.45;;
21152;SDS011;10734;44.792;20.482;2022-11-20T03:14:30;29.55;;;20.35;;
21152;SDS011;10734;44.792;20.482;2022-11-20T03:16:56;31.60;;;20.52;;
21152;SDS011;10734;44.792;20.482;2022-11-20T03:19:23;29.65;;;22.45;;
21152;SDS011;10734;44.792;20.482;2022-11-20T03:21:50;34.53;;;22.45;;
21152;SDS011;10734;44.792;20.482;2022-11-20T03:24:17;32.55;;;21.60;;
21152;SDS011;10734;44.792;20.482;2022-11-20T03:26:43;28.90;;;20.45;;
21152;SDS011;10734;44.792;20.482;2022-11-20T03:29:10;30.52;;;21.48;;
21152;SDS011;10734;44.792;20.482;2022-11-20T03:31:38;32.78;;;22.65;;
21152;SDS011;10734;44.792;20.482;2022-11-20T03:34:07;31.85;;;22.88;;
21152;SDS011;10734;44.792;20.482;2022-11-20T03:36:34;33.25;;;22.50;;
21152;SDS011;10734;44.792;20.482;2022-11-20T03:39:03;32.88;;;23.73;;
21152;SDS011;10734;44.792;20.482;2022-11-20T03:41:30;37.08;;;26.83;;
21152;SDS011;10734;44.792;20.482;2022-11-20T03:43:59;38.17;;;24.90;;
21152;SDS011;10734;44.792;20.482;2022-11-20T03:46:27;45.00;;;28.45;;
21152;SDS011;10734;44.792;20.482;2022-11-20T03:48:55;39.92;;;26.52;;
21152;SDS011;10734;44.792;20.482;2022-11-20T03:51:26;38.70;;;25.58;;
21152;SDS011;10734;44.792;20.482;2022-11-20T03:54:01;41.22;;;26.80;;
21152;SDS011;10734;44.792;20.482;2022-11-20T03:56:33;46.00;;;24.77;;
21152;SDS011;10734;44.792;20.482;2022-11-20T03:59:02;39.38;;;24.77;;
21152;SDS011;10734;44.792;20.482;2022-11-20T04:01:30;45.28;;;24.70;;
21152;SDS011;10734;44.792;20.482;2022-11-20T04:03:58;42.65;;;23.65;;
21152;SDS011;10734;44.792;20.482;2022-11-20T04:06:27;41.35;;;25.92;;
21152;SDS011;10734;44.792;20.482;2022-11-20T04:08:56;40.97;;;26.08;;
21152;SDS011;10734;44.792;20.482;2022-11-20T04:11:25;38.13;;;25.83;;
21152;SDS011;10734;44.792;20.482;2022-11-20T04:13:54;38.97;;;27.25;;
21152;SDS011;10734;44.792;20.482;2022-11-20T04:16:23;44.28;;;28.30;;
21152;SDS011;10734;44.792;20.482;2022-11-20T04:18:54;45.70;;;30.10;;
21152;SDS011;10734;44.792;20.482;2022-11-20T04:21:23;66.65;;;31.77;;
21152;SDS011;10734;44.792;20.482;2022-11-20T04:23:50;41.30;;;29.00;;
21152;SDS011;10734;44.792;20.482;2022-11-20T04:26:19;49.53;;;28.45;;
21152;SDS011;10734;44.792;20.482;2022-11-20T04:28:46;42.80;;;30.30;;
21152;SDS011;10734;44.792;20.482;2022-11-20T04:31:14;58.88;;;31.13;;
21152;SDS011;10734;44.792;20.482;2022-11-20T04:33:43;50.00;;;32.63;;
21152;SDS011;10734;44.792;20.482;2022-11-20T04:36:14;44.63;;;29.50;;
21152;SDS011;10734;44.792;20.482;2022-11-20T04:38:45;55.58;;;32.30;;
21152;SDS011;10734;44.792;20.482;2022-11-20T04:41:17;49.85;;;31.83;;
21152;SDS011;10734;44.792;20.482;2022-11-20T04:43:48;57.45;;;32.25;;
21152;SDS011;10734;44.792;20.482;2022-11-20T04:46:17;68.78;;;34.78;;
21152;SDS011;10734;44.792;20.482;2022-11-20T04:48:45;59.47;;;35.42;;
21152;SDS011;10734;44.792;20.482;2022-11-20T04:51:12;68.25;;;35.50;;
21152;SDS011;10734;44.792;20.482;2022-11-20T04:53:39;52.10;;;34.75;;
21152;SDS011;10734;44.792;20.482;2022-11-20T04:56:06;127.82;;;37.05;;
21152;SDS011;10734;44.792;20.482;2022-11-20T04:58:35;70.25;;;34.25;;
21152;SDS011;10734;44.792;20.482;2022-11-20T05:01:02;81.05;;;34.92;;
21152;SDS011;10734;44.792;20.482;2022-11-20T05:03:30;52.67;;;35.30;;
21152;SDS011;10734;44.792;20.482;2022-11-20T05:06:04;62.35;;;36.33;;
21152;SDS011;10734;44.792;20.482;2022-11-20T05:08:32;49.08;;;34.05;;
21152;SDS011;10734;44.792;20.482;2022-11-20T05:11:03;53.30;;;34.72;;
21152;SDS011;10734;44.792;20.482;2022-11-20T05:13:31;54.72;;;33.22;;
21152;SDS011;10734;44.792;20.482;2022-11-20T05:16:05;51.38;;;33.22;;
21152;SDS011;10734;44.792;20.482;2022-11-20T05:18:37;52.92;;;33.20;;
21152;SDS011;10734;44.792;20.482;2022-11-20T05:21:05;84.43;;;32.90;;
21152;SDS011;10734;44.792;20.482;2022-11-20T05:23:32;64.43;;;31.33;;
21152;SDS011;10734;44.792;20.482;2022-11-20T05:25:59;99.82;;;29.67;;
21152;SDS011;10734;44.792;20.482;2022-11-20T05:28:26;65.45;;;30.83;;
21152;SDS011;10734;44.792;20.482;2022-11-20T05:30:54;64.28;;;29.95;;
21152;SDS011;10734;44.792;20.482;2022-11-20T05:33:22;53.90;;;31.73;;
21152;SDS011;10734;44.792;20.482;2022-11-20T05:35:48;52.58;;;30.38;;
21152;SDS011;10734;44.792;20.482;2022-11-20T05:38:15;57.33;;;32.88;;
21152;SDS011;10734;44.792;20.482;2022-11-20T05:40:42;65.07;;;32.97;;
21152;SDS011;10734;44.792;20.482;2022-11-20T05:43:09;50.70;;;32.08;;
21152;SDS011;10734;44.792;20.482;2022-11-20T05:45:35;58.83;;;34.10;;
21152;SDS011;10734;44.792;20.482;2022-11-20T05:48:02;84.90;;;31.65;;
21152;SDS011;10734;44.792;20.482;2022-11-20T05:50:29;56.33;;;32.05;;
21152;SDS011;10734;44.792;20.482;2022-11-20T05:52:59;72.07;;;31.13;;
21152;SDS011;10734;44.792;20.482;2022-11-20T05:55:27;54.15;;;31.50;;
21152;SDS011;10734;44.792;20.482;2022-11-20T05:57:54;90.07;;;33.15;;
21152;SDS011;10734;44.792;20.482;2022-11-20T06:00:21;51.08;;;32.20;;
21152;SDS011;10734;44.792;20.482;2022-11-20T06:02:48;91.65;;;33.08;;
21152;SDS011;10734;44.792;20.482;2022-11-20T06:05:15;72.82;;;33.88;;
21152;SDS011;10734;44.792;20.482;2022-11-20T06:07:42;58.67;;;33.70;;
21152;SDS011;10734;44.792;20.482;2022-11-20T06:10:09;56.13;;;34.67;;
21152;SDS011;10734;44.792;20.482;2022-11-20T06:12:36;59.20;;;32.53;;
21152;SDS011;10734;44.792;20.482;2022-11-20T06:15:03;55.08;;;33.22;;
21152;SDS011;10734;44.792;20.482;2022-11-20T06:17:31;60.33;;;31.42;;
21152;SDS011;10734;44.792;20.482;2022-11-20T06:19:57;53.35;;;31.27;;
21152;SDS011;10734;44.792;20.482;2022-11-20T06:22:24;51.05;;;28.90;;
21152;SDS011;10734;44.792;20.482;2022-11-20T06:24:50;51.88;;;31.73;;
21152;SDS011;10734;44.792;20.482;2022-11-20T06:27:17;58.33;;;31.52;;
21152;SDS011;10734;44.792;20.482;2022-11-20T06:29:44;52.40;;;30.65;;
21152;SDS011;10734;44.792;20.482;2022-11-20T06:32:11;44.45;;;29.02;;
21152;SDS011;10734;44.792;20.482;2022-11-20T06:34:37;52.03;;;29.13;;
21152;SDS011;10734;44.792;20.482;2022-11-20T06:37:04;47.00;;;26.98;;
21152;SDS011;10734;44.792;20.482;2022-11-20T06:39:30;44.70;;;26.77;;
21152;SDS011;10734;44.792;20.482;2022-11-20T06:41:57;48.08;;;26.48;;
21152;SDS011;10734;44.792;20.482;2022-11-20T06:44:24;41.78;;;26.00;;
21152;SDS011;10734;44.792;20.482;2022-11-20T06:46:51;42.10;;;25.23;;
21152;SDS011;10734;44.792;20.482;2022-11-20T06:49:18;41.97;;;25.52;;
21152;SDS011;10734;44.792;20.482;2022-11-20T06:51:45;61.88;;;27.55;;
21152;SDS011;10734;44.792;20.482;2022-11-20T06:54:12;52.00;;;25.05;;
21152;SDS011;10734;44.792;20.482;2022-11-20T06:56:38;40.72;;;25.85;;
21152;SDS011;10734;44.792;20.482;2022-11-20T06:59:05;44.40;;;27.00;;
21152;SDS011;10734;44.792;20.482;2022-11-20T07:01:32;42.05;;;25.13;;
21152;SDS011;10734;44.792;20.482;2022-11-20T07:03:59;45.85;;;26.33;;
21152;SDS011;10734;44.792;20.482;2022-11-20T07:06:26;47.58;;;25.00;;
21152;SDS011;10734;44.792;20.482;2022-11-20T07:08:53;43.10;;;25.67;;
21152;SDS011;10734;44.792;20.482;2022-11-20T07:11:20;59.45;;;25.70;;
21152;SDS011;10734;44.792;20.482;2022-11-20T07:13:46;49.88;;;26.45;;
21152;SDS011;10734;44.792;20.482;2022-11-20T07:16:13;53.25;;;27.80;;
21152;SDS011;10734;44.792;20.482;2022-11-20T07:18:40;56.25;;;25.98;;
21152;SDS011;10734;44.792;20.482;2022-11-20T07:21:11;69.70;;;29.10;;
21152;SDS011;10734;44.792;20.482;2022-11-20T07:23:37;91.75;;;28.92;;
21152;SDS011;10734;44.792;20.482;2022-11-20T07:26:05;42.83;;;24.25;;
21152;SDS011;10734;44.792;20.482;2022-11-20T07:28:33;53.00;;;23.92;;
21152;SDS011;10734;44.792;20.482;2022-11-20T07:31:00;51.17;;;24.73;;
21152;SDS011;10734;44.792;20.482;2022-11-20T07:33:27;51.05;;;22.65;;
21152;SDS011;10734;44.792;20.482;2022-11-20T07:35:54;38.95;;;21.23;;
21152;SDS011;10734;44.792;20.482;2022-11-20T07:38:20;39.53;;;21.92;;
21152;SDS011;10734;44.792;20.482;2022-11-20T07:40:47;40.15;;;21.27;;
21152;SDS011;10734;44.792;20.482;2022-11-20T07:43:15;40.40;;;22.70;;
21152;SDS011;10734;44.792;20.482;2022-11-20T07:45:41;39.08;;;21.85;;
21152;SDS011;10734;44.792;20.482;2022-11-20T07:48:08;41.75;;;23.63;;
21152;SDS011;10734;44.792;20.482;2022-11-20T07:50:35;34.97;;;20.55;;
21152;SDS011;10734;44.792;20.482;2022-11-20T07:53:02;51.38;;;21.73;;
21152;SDS011;10734;44.792;20.482;2022-11-20T07:55:31;44.22;;;21.45;;
21152;SDS011;10734;44.792;20.482;2022-11-20T07:57:58;38.78;;;22.02;;
21152;SDS011;10734;44.792;20.482;2022-11-20T08:00:25;26.67;;;17.13;;
21152;SDS011;10734;44.792;20.482;2022-11-20T08:02:53;26.13;;;15.50;;
21152;SDS011;10734;44.792;20.482;2022-11-20T08:05:20;25.40;;;14.95;;
21152;SDS011;10734;44.792;20.482;2022-11-20T08:07:46;21.63;;;15.02;;
21152;SDS011;10734;44.792;20.482;2022-11-20T08:10:13;23.25;;;13.82;;
21152;SDS011;10734;44.792;20.482;2022-11-20T08:12:50;24.83;;;13.93;;
21152;SDS011;10734;44.792;20.482;2022-11-20T08:15:36;24.25;;;14.65;;
21152;SDS011;10734;44.792;20.482;2022-11-20T08:18:07;19.58;;;13.77;;
21152;SDS011;10734;44.792;20.482;2022-11-20T08:20:53;24.48;;;15.32;;
21152;SDS011;10734;44.792;20.482;2022-11-20T08:23:20;27.48;;;14.88;;
21152;SDS011;10734;44.792;20.482;2022-11-20T08:25:48;20.83;;;13.57;;
21152;SDS011;10734;44.792;20.482;2022-11-20T08:28:15;22.77;;;14.75;;
21152;SDS011;10734;44.792;20.482;2022-11-20T08:30:47;25.33;;;14.10;;
21152;SDS011;10734;44.792;20.482;2022-11-20T08:33:13;21.42;;;14.10;;
21152;SDS011;10734;44.792;20.482;2022-11-20T08:35:40;22.65;;;14.20;;
21152;SDS011;10734;44.792;20.482;2022-11-20T08:38:08;22.50;;;13.95;;
21152;SDS011;10734;44.792;20.482;2022-11-20T08:40:34;18.27;;;11.90;;
21152;SDS011;10734;44.792;20.482;2022-11-20T08:43:01;21.55;;;11.65;;
21152;SDS011;10734;44.792;20.482;2022-11-20T08:45:27;19.77;;;11.75;;
21152;SDS011;10734;44.792;20.482;2022-11-20T08:50:25;25.25;;;12.60;;
21152;SDS011;10734;44.792;20.482;2022-11-20T08:52:52;21.35;;;12.40;;
21152;SDS011;10734;44.792;20.482;2022-11-20T08:55:18;24.20;;;13.85;;
21152;SDS011;10734;44.792;20.482;2022-11-20T08:57:45;24.88;;;15.05;;
21152;SDS011;10734;44.792;20.482;2022-11-20T09:00:16;27.00;;;16.90;;
21152;SDS011;10734;44.792;20.482;2022-11-20T09:02:42;30.20;;;15.93;;
21152;SDS011;10734;44.792;20.482;2022-11-20T09:05:09;30.88;;;17.60;;
21152;SDS011;10734;44.792;20.482;2022-11-20T09:07:35;33.33;;;17.67;;
21152;SDS011;10734;44.792;20.482;2022-11-20T09:10:02;33.08;;;18.67;;
21152;SDS011;10734;44.792;20.482;2022-11-20T09:12:49;36.50;;;19.60;;
21152;SDS011;10734;44.792;20.482;2022-11-20T09:15:16;35.53;;;20.02;;
21152;SDS011;10734;44.792;20.482;2022-11-20T09:17:52;46.17;;;22.08;;
21152;SDS011;10734;44.792;20.482;2022-11-20T09:20:19;42.97;;;22.38;;
21152;SDS011;10734;44.792;20.482;2022-11-20T09:22:46;38.08;;;20.95;;
21152;SDS011;10734;44.792;20.482;2022-11-20T09:25:12;47.00;;;21.75;;
21152;SDS011;10734;44.792;20.482;2022-11-20T09:27:39;33.58;;;20.67;;
21152;SDS011;10734;44.792;20.482;2022-11-20T09:30:07;41.72;;;21.58;;
21152;SDS011;10734;44.792;20.482;2022-11-20T09:32:34;45.63;;;23.38;;
21152;SDS011;10734;44.792;20.482;2022-11-20T09:35:00;71.53;;;24.48;;
21152;SDS011;10734;44.792;20.482;2022-11-20T09:37:27;47.72;;;23.75;;
21152;SDS011;10734;44.792;20.482;2022-11-20T09:39:54;37.45;;;20.95;;
21152;SDS011;10734;44.792;20.482;2022-11-20T09:55:12;50.42;;;20.63;;
21152;SDS011;10734;44.792;20.482;2022-11-20T09:57:42;34.50;;;19.10;;
21152;SDS011;10734;44.792;20.482;2022-11-20T10:00:10;41.50;;;20.85;;
21152;SDS011;10734;44.792;20.482;2022-11-20T10:05:19;33.22;;;18.02;;
21152;SDS011;10734;44.792;20.482;2022-11-20T10:08:12;32.47;;;20.13;;
21152;SDS011;10734;44.792;20.482;2022-11-20T10:26:05;48.08;;;21.65;;
21152;SDS011;10734;44.792;20.482;2022-11-20T10:31:37;41.35;;;20.35;;
21152;SDS011;10734;44.792;20.482;2022-11-20T10:42:37;45.53;;;23.35;;
21152;SDS011;10734;44.792;20.482;2022-11-20T10:48:10;53.10;;;23.65;;
21152;SDS011;10734;44.792;20.482;2022-11-20T10:53:36;38.53;;;21.05;;
21152;SDS011;10734;44.792;20.482;2022-11-20T11:01:45;42.17;;;23.27;;
21152;SDS011;10734;44.792;20.482;2022-11-20T11:07:05;64.03;;;26.73;;
21152;SDS011;10734;44.792;20.482;2022-11-20T11:09:35;59.25;;;26.50;;
21152;SDS011;10734;44.792;20.482;2022-11-20T11:12:05;51.92;;;27.35;;
21152;SDS011;10734;44.792;20.482;2022-11-20T11:14:41;50.47;;;24.45;;
21152;SDS011;10734;44.792;20.482;2022-11-20T11:17:17;53.20;;;25.83;;
21152;SDS011;10734;44.792;20.482;2022-11-20T11:19:44;41.10;;;23.25;;
21152;SDS011;10734;44.792;20.482;2022-11-20T11:22:11;45.67;;;23.25;;
21152;SDS011;10734;44.792;20.482;2022-11-20T11:24:51;42.83;;;20.92;;
21152;SDS011;10734;44.792;20.482;2022-11-20T11:27:18;36.95;;;19.88;;
21152;SDS011;10734;44.792;20.482;2022-11-20T11:29:47;35.10;;;18.98;;
21152;SDS011;10734;44.792;20.482;2022-11-20T11:32:17;32.15;;;18.15;;
21152;SDS011;10734;44.792;20.482;2022-11-20T11:34:44;36.50;;;19.83;;
21152;SDS011;10734;44.792;20.482;2022-11-20T11:37:13;33.33;;;17.52;;
21152;SDS011;10734;44.792;20.482;2022-11-20T11:39:41;32.55;;;17.05;;
21152;SDS011;10734;44.792;20.482;2022-11-20T11:42:10;30.92;;;18.45;;
21152;SDS011;10734;44.792;20.482;2022-11-20T11:44:37;33.15;;;18.08;;
21152;SDS011;10734;44.792;20.482;2022-11-20T11:52:42;40.70;;;20.70;;
21152;SDS011;10734;44.792;20.482;2022-11-20T11:55:09;39.28;;;21.40;;
21152;SDS011;10734;44.792;20.482;2022-11-20T12:00:09;39.10;;;20.75;;
21152;SDS011;10734;44.792;20.482;2022-11-20T12:05:11;44.13;;;22.98;;
21152;SDS011;10734;44.792;20.482;2022-11-20T12:13:02;52.65;;;24.42;;
21152;SDS011;10734;44.792;20.482;2022-11-20T12:15:31;45.88;;;25.20;;
21152;SDS011;10734;44.792;20.482;2022-11-20T12:17:57;48.10;;;23.75;;
21152;SDS011;10734;44.792;20.482;2022-11-20T12:20:26;44.83;;;23.17;;
21152;SDS011;10734;44.792;20.482;2022-11-20T12:25:31;41.20;;;22.20;;
21152;SDS011;10734;44.792;20.482;2022-11-20T12:36:09;39.05;;;19.98;;
21152;SDS011;10734;44.792;20.482;2022-11-20T12:38:41;36.00;;;19.30;;
21152;SDS011;10734;44.792;20.482;2022-11-20T12:41:15;34.25;;;20.00;;
21152;SDS011;10734;44.792;20.482;2022-11-20T12:47:29;35.60;;;19.48;;
21152;SDS011;10734;44.792;20.482;2022-11-20T12:53:05;35.63;;;19.58;;
21152;SDS011;10734;44.792;20.482;2022-11-20T13:00:54;36.95;;;21.75;;
21152;SDS011;10734;44.792;20.482;2022-11-20T13:05:56;43.78;;;21.90;;
21152;SDS011;10734;44.792;20.482;2022-11-20T13:08:29;39.58;;;21.15;;
21152;SDS011;10734;44.792;20.482;2022-11-20T13:16:16;43.58;;;22.33;;
21152;SDS011;10734;44.792;20.482;2022-11-20T13:18:43;44.47;;;22.58;;
21152;SDS011;10734;44.792;20.482;2022-11-20T13:21:15;44.65;;;22.85;;
21152;SDS011;10734;44.792;20.482;2022-11-20T13:23:41;51.25;;;23.83;;
21152;SDS011;10734;44.792;20.482;2022-11-20T13:26:18;43.78;;;24.40;;
21152;SDS011;10734;44.792;20.482;2022-11-20T13:28:46;47.05;;;23.65;;
21152;SDS011;10734;44.792;20.482;2022-11-20T13:31:30;47.38;;;23.98;;
21152;SDS011;10734;44.792;20.482;2022-11-20T13:33:57;45.85;;;24.48;;
21152;SDS011;10734;44.792;20.482;2022-11-20T13:36:25;50.85;;;25.10;;
21152;SDS011;10734;44.792;20.482;2022-11-20T13:38:53;52.47;;;26.90;;
21152;SDS011;10734;44.792;20.482;2022-11-20T13:41:30;53.92;;;26.17;;
21152;SDS011;10734;44.792;20.482;2022-11-20T13:46:38;48.42;;;25.35;;
21152;SDS011;10734;44.792;20.482;2022-11-20T13:49:06;48.30;;;24.92;;
21152;SDS011;10734;44.792;20.482;2022-11-20T13:51:44;44.67;;;22.20;;
21152;SDS011;10734;44.792;20.482;2022-11-20T13:59:40;35.28;;;19.00;;
21152;SDS011;10734;44.792;20.482;2022-11-20T14:02:14;34.45;;;19.73;;
21152;SDS011;10734;44.792;20.482;2022-11-20T14:04:45;44.13;;;21.60;;
21152;SDS011;10734;44.792;20.482;2022-11-20T14:07:12;47.65;;;23.48;;
21152;SDS011;10734;44.792;20.482;2022-11-20T14:09:48;54.97;;;23.50;;
21152;SDS011;10734;44.792;20.482;2022-11-20T14:12:15;45.15;;;23.08;;
21152;SDS011;10734;44.792;20.482;2022-11-20T14:14:52;45.33;;;23.17;;
21152;SDS011;10734;44.792;20.482;2022-11-20T14:19:56;55.75;;;29.05;;
21152;SDS011;10734;44.792;20.482;2022-11-20T14:22:25;55.38;;;29.38;;
21152;SDS011;10734;44.792;20.482;2022-11-20T14:25:03;51.72;;;26.63;;
21152;SDS011;10734;44.792;20.482;2022-11-20T14:27:32;49.67;;;24.23;;
21152;SDS011;10734;44.792;20.482;2022-11-20T14:30:00;35.30;;;19.77;;
21152;SDS011;10734;44.792;20.482;2022-11-20T14:32:27;43.08;;;21.25;;
21152;SDS011;10734;44.792;20.482;2022-11-20T14:34:55;40.85;;;20.52;;
21152;SDS011;10734;44.792;20.482;2022-11-20T14:37:24;36.95;;;19.73;;
21152;SDS011;10734;44.792;20.482;2022-11-20T14:39:53;38.70;;;20.90;;
21152;SDS011;10734;44.792;20.482;2022-11-20T14:42:21;35.88;;;19.42;;
21152;SDS011;10734;44.792;20.482;2022-11-20T14:44:48;37.00;;;19.63;;
21152;SDS011;10734;44.792;20.482;2022-11-20T14:47:19;38.65;;;19.27;;
21152;SDS011;10734;44.792;20.482;2022-11-20T14:49:47;33.25;;;17.85;;
21152;SDS011;10734;44.792;20.482;2022-11-20T14:52:18;33.53;;;17.25;;
21152;SDS011;10734;44.792;20.482;2022-11-20T14:54:48;30.37;;;17.93;;
21152;SDS011;10734;44.792;20.482;2022-11-20T14:57:22;34.33;;;18.60;;
21152;SDS011;10734;44.792;20.482;2022-11-20T14:59:49;33.78;;;17.77;;
21152;SDS011;10734;44.792;20.482;2022-11-20T15:02:15;34.47;;;19.23;;
21152;SDS011;10734;44.792;20.482;2022-11-20T15:04:46;34.60;;;18.83;;
21152;SDS011;10734;44.792;20.482;2022-11-20T15:07:22;34.15;;;18.52;;
21152;SDS011;10734;44.792;20.482;2022-11-20T15:10:11;30.17;;;17.58;;
21152;SDS011;10734;44.792;20.482;2022-11-20T15:12:38;30.23;;;16.48;;
21152;SDS011;10734;44.792;20.482;2022-11-20T15:15:08;28.80;;;16.20;;
21152;SDS011;10734;44.792;20.482;2022-11-20T15:17:38;35.00;;;17.10;;
21152;SDS011;10734;44.792;20.482;2022-11-20T15:20:09;27.02;;;15.73;;
21152;SDS011;10734;44.792;20.482;2022-11-20T15:22:37;27.55;;;16.05;;
21152;SDS011;10734;44.792;20.482;2022-11-20T15:25:14;27.80;;;17.60;;
21152;SDS011;10734;44.792;20.482;2022-11-20T15:27:41;31.45;;;18.70;;
21152;SDS011;10734;44.792;20.482;2022-11-20T15:30:14;33.65;;;17.77;;
21152;SDS011;10734;44.792;20.482;2022-11-20T15:32:41;29.42;;;16.20;;
21152;SDS011;10734;44.792;20.482;2022-11-20T15:35:08;29.38;;;17.42;;
21152;SDS011;10734;44.792;20.482;2022-11-20T15:37:35;31.58;;;17.83;;
21152;SDS011;10734;44.792;20.482;2022-11-20T15:40:02;29.95;;;16.83;;
21152;SDS011;10734;44.792;20.482;2022-11-20T15:42:28;31.15;;;16.58;;
21152;SDS011;10734;44.792;20.482;2022-11-20T15:44:55;29.83;;;16.95;;
21152;SDS011;10734;44.792;20.482;2022-11-20T15:47:23;29.17;;;16.40;;
21152;SDS011;10734;44.792;20.482;2022-11-20T15:49:51;30.80;;;17.58;;
21152;SDS011;10734;44.792;20.482;2022-11-20T15:52:18;29.52;;;17.02;;
21152;SDS011;10734;44.792;20.482;2022-11-20T15:54:44;29.50;;;16.15;;
21152;SDS011;10734;44.792;20.482;2022-11-20T15:57:11;28.30;;;15.82;;
21152;SDS011;10734;44.792;20.482;2022-11-20T15:59:39;37.38;;;19.90;;
21152;SDS011;10734;44.792;20.482;2022-11-20T16:02:10;36.53;;;18.25;;
21152;SDS011;10734;44.792;20.482;2022-11-20T16:04:44;32.40;;;17.40;;
21152;SDS011;10734;44.792;20.482;2022-11-20T16:07:10;35.85;;;18.55;;
21152;SDS011;10734;44.792;20.482;2022-11-20T16:09:37;31.52;;;17.73;;
21152;SDS011;10734;44.792;20.482;2022-11-20T16:12:03;29.20;;;17.25;;
21152;SDS011;10734;44.792;20.482;2022-11-20T16:14:30;33.53;;;19.13;;
21152;SDS011;10734;44.792;20.482;2022-11-20T16:17:15;31.48;;;18.50;;
21152;SDS011;10734;44.792;20.482;2022-11-20T16:20:01;35.90;;;19.70;;
21152;SDS011;10734;44.792;20.482;2022-11-20T16:22:28;35.80;;;19.58;;
21152;SDS011;10734;44.792;20.482;2022-11-20T16:24:54;29.65;;;18.00;;
21152;SDS011;10734;44.792;20.482;2022-11-20T16:27:21;32.90;;;18.92;;
21152;SDS011;10734;44.792;20.482;2022-11-20T16:29:47;38.20;;;18.90;;
21152;SDS011;10734;44.792;20.482;2022-11-20T16:32:13;30.65;;;18.73;;
21152;SDS011;10734;44.792;20.482;2022-11-20T16:34:40;33.17;;;19.00;;
21152;SDS011;10734;44.792;20.482;2022-11-20T16:37:06;33.33;;;19.23;;